Time;durP1;ratioP1;P1;durP2;ratioP2;P2;SDS_P1;SDS_P2;PMS_P1;PMS_P2;Temp;Humidity;BMP_temperature;BMP_pressure;BME280_temperature;BME280_humidity;BME280_pressure;Samples;Min_cycle;Max_cycle;Signal;HPM_P1;HPM_P2
2022/06/06 00:00:08;;;;;;;354.63;262.67;;;;;;;25.25;54.25;99240.91;410293;24;1926;-80
2022/06/06 00:00:18;;;;;;;353.52;259.10;;;;;;;25.28;54.81;99245.94;414268;23;916;-80
2022/06/06 00:00:28;;;;;;;353.07;258.80;;;;;;;25.29;54.85;99247.63;413710;23;1195;-80
2022/06/06 00:00:40;;;;;;;355.25;261.48;;;;;;;25.28;54.65;99245.09;410264;24;779;-80
2022/06/06 00:00:50;;;;;;;357.33;263.02;;;;;;;25.28;54.64;99245.94;414228;23;1562;-80
2022/06/06 00:01:01;;;;;;;356.90;259.63;;;;;;;25.29;54.51;99247.63;411849;24;1311;-80
2022/06/06 00:01:13;;;;;;;357.73;262.93;;;;;;;25.28;54.35;99245.94;407629;24;1435;-80
2022/06/06 00:01:23;;;;;;;356.58;260.02;;;;;;;25.29;54.46;99247.63;415932;23;1379;-80
2022/06/06 00:01:34;;;;;;;357.73;261.02;;;;;;;25.29;54.63;99250.28;411916;24;1136;-80
2022/06/06 00:01:45;;;;;;;357.93;258.80;;;;;;;25.27;54.32;99243.44;414021;23;1187;-80
2022/06/06 00:01:57;;;;;;;356.17;260.45;;;;;;;25.27;54.70;99244.25;416014;23;1372;-80
2022/06/06 00:02:07;;;;;;;355.55;262.80;;;;;;;25.27;54.61;99248.78;411955;24;1391;-80
2022/06/06 00:02:19;;;;;;;357.23;264.47;;;;;;;25.26;54.86;99247.09;412525;24;711;-80
2022/06/06 00:02:29;;;;;;;360.65;264.85;;;;;;;25.24;54.64;99241.91;411978;24;1051;-80
2022/06/06 00:02:40;;;;;;;360.10;261.98;;;;;;;25.24;54.56;99244.59;408281;24;1318;-80
2022/06/06 00:02:50;;;;;;;361.50;260.50;;;;;;;25.25;54.59;99240.91;408576;24;1131;-80
2022/06/06 00:03:01;;;;;;;358.57;260.30;;;;;;;25.25;54.67;99246.28;409679;24;1346;-80
2022/06/06 00:03:12;;;;;;;356.40;262.00;;;;;;;25.22;54.72;99249.28;413762;23;1535;-80
2022/06/06 00:03:23;;;;;;;357.98;264.73;;;;;;;25.23;55.09;99242.09;414127;23;900;-80
2022/06/06 00:03:33;;;;;;;356.73;263.40;;;;;;;25.21;55.06;99242.25;412007;24;1402;-80
2022/06/06 00:03:44;;;;;;;358.93;263.00;;;;;;;25.23;54.87;99244.75;409929;24;1203;-80
2022/06/06 00:03:55;;;;;;;356.85;261.35;;;;;;;25.22;55.09;99243.91;412188;24;890;-80
2022/06/06 00:04:05;;;;;;;357.03;263.17;;;;;;;25.24;55.14;99246.44;412065;24;1179;-80
2022/06/06 00:04:15;;;;;;;355.45;260.77;;;;;;;25.22;55.06;99240.41;413960;23;1313;-80
2022/06/06 00:04:29;;;;;;;358.60;265.70;;;;;;;25.23;54.97;99250.94;413779;23;1438;-80
2022/06/06 00:04:40;;;;;;;358.05;266.08;;;;;;;25.24;54.87;99241.91;410035;24;1195;-80
2022/06/06 00:04:50;;;;;;;357.20;263.48;;;;;;;25.22;54.89;99235.03;410076;24;1304;-80
2022/06/06 00:05:01;;;;;;;356.00;262.07;;;;;;;25.23;54.83;99242.09;412375;24;727;-80
2022/06/06 00:05:15;;;;;;;355.48;260.85;;;;;;;25.20;55.20;99238.72;413695;23;1246;-80
2022/06/06 00:05:25;;;;;;;352.83;261.80;;;;;;;25.23;55.11;99240.25;412081;24;1369;-80
2022/06/06 00:05:36;;;;;;;355.80;263.33;;;;;;;25.22;55.15;99235.88;408280;24;1271;-80
2022/06/06 00:05:47;;;;;;;356.08;261.48;;;;;;;25.22;54.91;99238.56;412029;24;1342;-80
2022/06/06 00:05:58;;;;;;;355.70;258.60;;;;;;;25.22;54.88;99245.75;412111;24;853;-80
2022/06/06 00:06:19;;;;;;;358.05;263.60;;;;;;;25.22;55.14;99235.88;410113;24;1358;-80
2022/06/06 00:06:30;;;;;;;355.58;257.55;;;;;;;25.22;55.06;99241.25;410161;24;771;-80
2022/06/06 00:06:40;;;;;;;352.73;253.48;;;;;;;25.23;55.23;99237.56;413765;23;762;-80
2022/06/06 00:06:51;;;;;;;353.33;258.00;;;;;;;25.22;55.07;99235.88;413891;23;1017;-80
2022/06/06 00:07:02;;;;;;;357.20;262.65;;;;;;;25.23;55.26;99234.03;414130;23;773;-80
2022/06/06 00:07:13;;;;;;;359.33;264.45;;;;;;;25.23;55.16;99232.19;408085;24;1212;-80
2022/06/06 00:07:24;;;;;;;360.17;264.55;;;;;;;25.22;54.89;99238.56;412125;24;884;-80
2022/06/06 00:07:35;;;;;;;358.83;263.45;;;;;;;25.23;54.95;99239.41;413975;23;1368;-80
2022/06/06 00:07:45;;;;;;;356.33;262.60;;;;;;;25.20;55.18;99233.38;412248;24;1253;-80
2022/06/06 00:07:55;;;;;;;355.43;263.37;;;;;;;25.21;55.05;99228.84;410334;24;1178;-80
2022/06/06 00:08:06;;;;;;;354.27;261.88;;;;;;;25.20;55.34;99229.84;410260;24;1316;-80
2022/06/06 00:08:17;;;;;;;355.07;264.30;;;;;;;25.17;55.04;99238.22;414056;23;1321;-80
2022/06/06 00:08:27;;;;;;;354.85;260.65;;;;;;;25.16;55.11;99231.19;413794;23;1316;-80
2022/06/06 00:08:38;;;;;;;356.53;260.33;;;;;;;25.18;55.14;99234.53;408270;24;1477;-80
2022/06/06 00:08:49;;;;;;;355.15;258.35;;;;;;;25.18;55.40;99231.84;408237;24;898;-80
2022/06/06 00:08:59;;;;;;;354.63;259.23;;;;;;;25.17;55.45;99233.69;413956;23;1177;-80
2022/06/06 00:09:11;;;;;;;355.13;260.23;;;;;;;25.18;55.68;99229.19;413972;23;824;-80
2022/06/06 00:09:21;;;;;;;355.58;260.33;;;;;;;25.18;55.48;99234.53;411868;24;1389;-80
2022/06/06 00:09:32;;;;;;;354.38;258.88;;;;;;;25.15;55.40;99226.81;413889;23;1232;-80
2022/06/06 00:09:42;;;;;;;353.90;258.67;;;;;;;25.15;55.53;99229.50;413990;23;1183;-80
2022/06/06 00:09:53;;;;;;;354.73;260.10;;;;;;;25.15;55.36;99232.19;409847;24;1280;-80
2022/06/06 00:10:04;;;;;;;354.87;261.87;;;;;;;25.15;55.38;99230.34;411964;24;1330;-80
2022/06/06 00:10:14;;;;;;;356.13;263.70;;;;;;;25.15;55.17;99232.19;408123;24;1287;-80
2022/06/06 00:10:25;;;;;;;355.75;264.75;;;;;;;25.14;55.38;99227.84;410262;24;1203;-80
2022/06/06 00:10:36;;;;;;;357.20;263.38;;;;;;;25.12;55.17;99225.34;416076;23;1296;-80
2022/06/06 00:10:46;;;;;;;357.07;264.07;;;;;;;25.15;55.41;99232.19;412029;24;1293;-80
2022/06/06 00:10:57;;;;;;;355.35;263.55;;;;;;;25.17;55.27;99227.50;410121;24;1484;-80
2022/06/06 00:11:09;;;;;;;355.97;263.17;;;;;;;25.15;55.17;99235.69;413940;23;1278;-80
2022/06/06 00:11:19;;;;;;;354.17;258.83;;;;;;;25.14;55.57;99228.66;412086;24;1394;-80
2022/06/06 00:11:33;;;;;;;354.03;258.67;;;;;;;25.13;55.29;99231.50;413904;23;1283;-80
2022/06/06 00:11:44;;;;;;;350.70;255.40;;;;;;;25.13;55.46;99231.50;413675;23;1265;-80
2022/06/06 00:11:58;;;;;;;353.27;259.60;;;;;;;25.14;55.48;99227.84;408117;24;1187;-80
2022/06/06 00:12:09;;;;;;;354.63;262.10;;;;;;;25.14;55.51;99226.00;411051;24;1370;-80
2022/06/06 00:12:20;;;;;;;355.97;265.10;;;;;;;25.12;55.52;99225.34;409934;24;992;-79
2022/06/06 00:12:30;;;;;;;361.00;266.85;;;;;;;25.11;55.42;99223.66;411899;24;1390;-79
2022/06/06 00:12:41;;;;;;;363.73;267.63;;;;;;;25.10;55.58;99226.50;411989;24;754;-80
2022/06/06 00:12:51;;;;;;;362.30;266.00;;;;;;;25.13;55.77;99231.50;410063;24;1184;-80
2022/06/06 00:13:02;;;;;;;357.88;263.23;;;;;;;25.12;55.88;99224.50;413957;23;1295;-80
2022/06/06 00:13:13;;;;;;;357.23;263.27;;;;;;;25.11;55.25;99226.34;412403;24;853;-80
2022/06/06 00:13:24;;;;;;;358.45;262.40;;;;;;;25.08;55.58;99228.53;412084;24;857;-80
2022/06/06 00:13:34;;;;;;;359.70;262.93;;;;;;;25.10;55.65;99226.50;412388;24;920;-80
2022/06/06 00:13:46;;;;;;;360.45;261.65;;;;;;;25.11;55.59;99228.19;411914;24;1308;-80
2022/06/06 00:13:56;;;;;;;360.55;259.05;;;;;;;25.11;55.72;99228.19;410159;24;1366;-80
2022/06/06 00:14:07;;;;;;;360.20;259.40;;;;;;;25.08;55.44;99224.00;408024;24;1316;-80
2022/06/06 00:14:17;;;;;;;359.20;260.55;;;;;;;25.09;55.68;99231.03;413774;23;830;-80
2022/06/06 00:14:28;;;;;;;358.13;263.33;;;;;;;25.05;55.51;99229.69;415755;23;1301;-80
2022/06/06 00:14:38;;;;;;;356.13;260.60;;;;;;;25.03;55.67;99225.50;411922;24;1274;-80
2022/06/06 00:14:49;;;;;;;358.83;258.93;;;;;;;25.03;56.23;99226.34;409895;24;1306;-80
2022/06/06 00:14:59;;;;;;;359.50;259.35;;;;;;;25.07;55.70;99232.19;411992;24;1267;-80
2022/06/06 00:15:11;;;;;;;362.50;262.13;;;;;;;25.03;55.89;99225.50;411956;24;1187;-80
2022/06/06 00:15:22;;;;;;;361.05;263.65;;;;;;;25.03;55.78;99226.34;415933;23;1377;-80
2022/06/06 00:15:33;;;;;;;361.67;264.00;;;;;;;25.00;55.98;99233.84;414024;23;1442;-79
2022/06/06 00:15:43;;;;;;;359.48;260.73;;;;;;;25.04;55.68;99229.84;411947;24;1457;-80
2022/06/06 00:15:53;;;;;;;358.33;258.83;;;;;;;25.02;55.86;99223.81;412019;24;1396;-80
2022/06/06 00:16:04;;;;;;;357.13;256.93;;;;;;;25.02;56.00;99226.50;412116;24;1455;-80
2022/06/06 00:16:14;;;;;;;356.40;260.13;;;;;;;25.04;55.86;99222.66;414029;23;1176;-80
2022/06/06 00:16:25;;;;;;;355.95;261.90;;;;;;;25.04;56.03;99222.66;410265;24;1302;-80
2022/06/06 00:16:35;;;;;;;357.97;263.23;;;;;;;25.02;55.98;99226.50;412177;24;983;-79
2022/06/06 00:16:46;;;;;;;359.50;261.03;;;;;;;25.00;55.80;99231.19;413734;23;1343;-79
2022/06/06 00:16:56;;;;;;;362.03;259.87;;;;;;;25.05;55.93;99231.53;409925;24;1391;-79
2022/06/06 00:17:07;;;;;;;360.83;262.07;;;;;;;25.04;56.07;99232.53;412116;24;707;-79
2022/06/06 00:17:17;;;;;;;362.52;264.92;;;;;;;25.02;55.70;99223.81;413848;23;1297;-79
2022/06/06 00:17:27;;;;;;;362.00;262.97;;;;;;;25.05;56.29;99236.88;410195;24;814;-79
2022/06/06 00:17:38;;;;;;;359.33;259.20;;;;;;;25.01;55.79;99233.69;410227;24;1047;-79
2022/06/06 00:17:48;;;;;;;359.43;259.13;;;;;;;25.02;56.07;99234.53;415936;23;1225;-79
2022/06/06 00:17:59;;;;;;;359.08;262.17;;;;;;;24.99;55.83;99224.16;413913;23;1292;-80
2022/06/06 00:18:09;;;;;;;363.30;264.73;;;;;;;24.99;56.00;99218.78;414022;23;1356;-80
2022/06/06 00:18:20;;;;;;;361.90;263.95;;;;;;;24.98;56.07;99238.53;412390;24;850;-80
2022/06/06 00:18:31;;;;;;;361.43;264.10;;;;;;;25.02;56.07;99234.53;412233;24;1259;-80
2022/06/06 00:18:41;;;;;;;361.20;263.92;;;;;;;25.01;56.12;99231.00;410324;24;1326;-80
2022/06/06 00:18:52;;;;;;;360.98;263.45;;;;;;;24.99;55.97;99233.00;410094;24;1363;-80
2022/06/06 00:19:03;;;;;;;358.52;258.65;;;;;;;24.99;55.89;99240.22;412384;24;1438;-80
2022/06/06 00:19:14;;;;;;;356.90;258.10;;;;;;;24.99;56.18;99233.00;410126;24;1370;-80
2022/06/06 00:19:24;;;;;;;356.13;259.40;;;;;;;24.97;56.32;99229.66;413943;23;1187;-80
2022/06/06 00:19:34;;;;;;;357.48;262.00;;;;;;;24.97;56.09;99232.34;415443;23;1201;-80
2022/06/06 00:19:45;;;;;;;356.07;260.57;;;;;;;24.97;56.16;99232.34;411951;24;1266;-80
2022/06/06 00:19:55;;;;;;;356.80;262.43;;;;;;;24.99;56.37;99235.69;409876;24;1952;-80
2022/06/06 00:20:06;;;;;;;355.73;262.50;;;;;;;24.99;56.21;99234.84;408194;24;794;-80
2022/06/06 00:20:17;;;;;;;355.13;261.30;;;;;;;25.00;56.01;99231.19;410240;24;900;-80
2022/06/06 00:20:28;;;;;;;352.98;259.10;;;;;;;24.98;56.02;99233.19;410049;24;916;-80
2022/06/06 00:20:38;;;;;;;357.23;260.43;;;;;;;24.98;56.33;99235.84;408233;24;1172;-80
2022/06/06 00:20:49;;;;;;;361.15;263.58;;;;;;;24.94;56.25;99232.63;413982;23;1410;-80
2022/06/06 00:20:59;;;;;;;364.13;265.90;;;;;;;24.97;56.53;99236.84;414064;23;1317;-80
2022/06/06 00:21:11;;;;;;;364.02;266.83;;;;;;;24.95;56.19;99231.63;412481;24;1002;-80
2022/06/06 00:21:22;;;;;;;362.67;265.65;;;;;;;24.96;56.06;99230.66;409713;24;1375;-79
2022/06/06 00:21:34;;;;;;;361.45;262.30;;;;;;;24.95;56.18;99228.94;413932;23;1202;-79
2022/06/06 00:21:44;;;;;;;364.10;262.67;;;;;;;24.97;56.15;99231.50;414233;23;1394;-79
2022/06/06 00:21:55;;;;;;;363.75;261.98;;;;;;;24.97;56.26;99231.50;409949;24;1277;-79
2022/06/06 00:22:05;;;;;;;362.40;262.03;;;;;;;24.97;56.13;99232.34;411928;24;1293;-79
2022/06/06 00:22:15;;;;;;;356.45;260.60;;;;;;;24.96;56.19;99232.50;408132;24;905;-79
2022/06/06 00:22:26;;;;;;;352.80;258.20;;;;;;;24.95;56.00;99230.78;410193;24;833;-79
2022/06/06 00:22:36;;;;;;;352.17;259.65;;;;;;;24.94;56.28;99229.94;412089;24;848;-79
2022/06/06 00:22:47;;;;;;;351.93;257.90;;;;;;;24.93;56.12;99227.44;411996;24;1159;-79
2022/06/06 00:22:58;;;;;;;352.70;258.52;;;;;;;24.95;56.42;99233.47;412183;24;786;-79
2022/06/06 00:23:09;;;;;;;352.35;256.05;;;;;;;24.95;56.42;99234.31;408133;24;1445;-79
2022/06/06 00:23:19;;;;;;;356.73;257.67;;;;;;;24.94;56.53;99232.63;412103;24;1152;-79
2022/06/06 00:23:29;;;;;;;357.27;259.58;;;;;;;24.93;56.53;99235.47;413994;23;845;-79
2022/06/06 00:23:40;;;;;;;361.33;260.80;;;;;;;24.93;56.21;99230.13;410064;24;1156;-79
2022/06/06 00:23:50;;;;;;;362.33;262.35;;;;;;;24.94;56.44;99226.44;410393;24;829;-79
2022/06/06 00:24:01;;;;;;;363.43;263.20;;;;;;;24.97;56.55;99231.50;414237;23;1164;-79
2022/06/06 00:24:11;;;;;;;359.83;262.73;;;;;;;24.98;56.24;99227.81;412026;24;1406;-79
2022/06/06 00:24:22;;;;;;;356.33;259.87;;;;;;;24.99;56.43;99232.19;412171;24;837;-79
2022/06/06 00:24:32;;;;;;;352.48;255.52;;;;;;;24.98;56.36;99219.78;411989;24;1335;-79
2022/06/06 00:24:43;;;;;;;352.67;255.20;;;;;;;25.00;56.28;99232.00;411995;24;1191;-79
2022/06/06 00:24:54;;;;;;;353.67;257.67;;;;;;;25.00;56.61;99231.19;411997;24;1191;-79
2022/06/06 00:25:05;;;;;;;357.67;260.52;;;;;;;25.00;56.77;99225.81;410211;24;849;-79
2022/06/06 00:25:15;;;;;;;355.15;258.60;;;;;;;25.02;56.96;99226.50;410044;24;1379;-79
2022/06/06 00:25:27;;;;;;;357.40;258.90;;;;;;;25.03;56.72;99233.53;412837;23;1201;-79
2022/06/06 00:25:38;;;;;;;358.17;260.70;;;;;;;24.99;57.04;99229.50;413769;23;1379;-79
2022/06/06 00:25:48;;;;;;;358.65;261.92;;;;;;;25.00;56.69;99225.81;410039;24;1297;-79
2022/06/06 00:25:58;;;;;;;354.07;261.83;;;;;;;25.00;56.83;99229.34;411943;24;1346;-79
2022/06/06 00:26:10;;;;;;;353.20;261.08;;;;;;;24.99;57.42;99230.34;408477;24;1307;-79
2022/06/06 00:26:21;;;;;;;351.10;258.05;;;;;;;25.00;56.83;99236.53;412346;24;1360;-79
2022/06/06 00:26:32;;;;;;;352.17;257.00;;;;;;;25.01;57.12;99235.53;414107;23;996;-79
2022/06/06 00:26:42;;;;;;;353.23;258.95;;;;;;;25.02;56.70;99226.50;408576;24;1079;-79
2022/06/06 00:26:52;;;;;;;354.67;261.73;;;;;;;25.00;56.82;99220.47;412000;24;1225;-79
2022/06/06 00:27:04;;;;;;;356.67;261.85;;;;;;;25.02;56.85;99224.66;412167;24;1211;-79
2022/06/06 00:27:15;;;;;;;356.20;260.40;;;;;;;25.03;57.05;99228.16;408087;24;1361;-79
2022/06/06 00:27:25;;;;;;;359.05;263.02;;;;;;;25.04;56.97;99230.69;408174;24;1303;-79
2022/06/06 00:27:36;;;;;;;357.83;263.93;;;;;;;25.03;56.60;99228.16;410153;24;960;-79
2022/06/06 00:27:46;;;;;;;358.10;266.03;;;;;;;25.00;56.57;99220.47;413801;23;1254;-79
2022/06/06 00:27:56;;;;;;;358.87;264.60;;;;;;;24.97;56.76;99218.13;413995;23;877;-79
2022/06/06 00:28:07;;;;;;;358.55;262.73;;;;;;;24.97;56.60;99226.97;410163;24;1309;-79
2022/06/06 00:28:17;;;;;;;359.47;260.63;;;;;;;24.97;56.61;99231.50;409916;24;1293;-79
2022/06/06 00:28:28;;;;;;;356.35;258.00;;;;;;;24.94;56.88;99223.75;412092;24;766;-79
2022/06/06 00:28:39;;;;;;;359.10;259.90;;;;;;;24.95;57.05;99226.28;413981;23;1188;-79
2022/06/06 00:28:49;;;;;;;360.70;261.80;;;;;;;24.94;56.47;99223.75;413973;23;1268;-79
2022/06/06 00:29:00;;;;;;;362.02;263.25;;;;;;;24.94;57.14;99226.44;410345;24;972;-79
2022/06/06 00:29:14;;;;;;;361.40;262.98;;;;;;;24.96;56.98;99221.78;408035;24;1381;-79
2022/06/06 00:29:25;;;;;;;360.33;261.83;;;;;;;24.97;56.95;99218.94;410375;24;1420;-79
2022/06/06 00:29:36;;;;;;;360.73;262.85;;;;;;;24.97;57.53;99224.31;408278;24;1244;-79
2022/06/06 00:29:46;;;;;;;359.80;263.30;;;;;;;24.94;57.40;99221.91;412300;24;1247;-79
2022/06/06 00:29:57;;;;;;;358.52;263.20;;;;;;;24.92;57.18;99218.56;411946;24;1203;-79
2022/06/06 00:30:08;;;;;;;357.17;261.67;;;;;;;24.95;56.87;99214.72;411778;24;1163;-79
2022/06/06 00:30:18;;;;;;;355.55;258.02;;;;;;;24.94;56.74;99221.91;410022;24;1264;-79
2022/06/06 00:30:29;;;;;;;354.08;256.08;;;;;;;24.91;56.71;99216.06;411450;24;1338;-79
2022/06/06 00:30:39;;;;;;;354.87;256.53;;;;;;;24.94;56.75;99221.09;411682;24;1267;-79
2022/06/06 00:30:55;;;;;;;356.33;259.80;;;;;;;24.95;56.89;99225.44;413870;23;1322;-79
2022/06/06 00:35:03;;;;;;;348.75;254.93;;;;;;;24.86;57.24;99230.78;414058;23;643;-79
2022/06/06 00:35:14;;;;;;;348.63;251.32;;;;;;;24.85;57.57;99223.75;416075;23;892;-79
2022/06/06 00:35:25;;;;;;;350.70;252.15;;;;;;;24.86;57.37;99225.41;414012;23;1007;-79
2022/06/06 00:35:36;;;;;;;351.73;251.23;;;;;;;24.87;57.20;99227.09;413782;23;1171;-79
2022/06/06 00:35:46;;;;;;;354.75;255.93;;;;;;;24.86;57.29;99225.41;409991;24;1206;-79
2022/06/06 00:35:58;;;;;;;356.33;258.17;;;;;;;24.86;57.23;99220.06;411948;24;1369;-79
2022/06/06 00:36:08;;;;;;;354.92;259.00;;;;;;;24.84;57.41;99227.41;410229;24;806;-79
2022/06/06 00:36:19;;;;;;;353.73;256.02;;;;;;;24.82;57.12;99221.38;412110;24;1297;-79
2022/06/06 00:36:35;;;;;;;354.87;255.20;;;;;;;24.81;57.64;99222.38;414068;23;830;-79
2022/06/06 00:36:45;;;;;;;355.98;258.85;;;;;;;24.82;57.55;99218.72;411845;24;1167;-79
2022/06/06 00:36:56;;;;;;;356.15;261.05;;;;;;;24.83;57.57;99223.06;413816;23;1216;-79
2022/06/06 00:37:07;;;;;;;356.20;260.37;;;;;;;24.84;57.36;99226.56;415903;23;1185;-79
2022/06/06 00:37:23;;;;;;;354.85;258.08;;;;;;;24.84;57.35;99222.06;410102;24;1327;-79
2022/06/06 00:37:34;;;;;;;353.38;255.20;;;;;;;24.84;57.39;99211.34;410207;24;927;-79
2022/06/06 00:37:45;;;;;;;354.30;256.85;;;;;;;24.83;56.98;99220.38;409972;24;1319;-79
2022/06/06 00:37:56;;;;;;;355.17;255.70;;;;;;;24.82;56.92;99213.34;412266;24;1297;-79
2022/06/06 00:38:06;;;;;;;355.80;257.15;;;;;;;24.81;57.16;99216.19;410182;24;1364;-79
2022/06/06 00:38:17;;;;;;;354.90;255.82;;;;;;;24.81;57.42;99217.03;410041;24;1319;-79
2022/06/06 00:38:27;;;;;;;357.93;257.90;;;;;;;24.86;57.32;99219.22;411657;24;1209;-79
2022/06/06 00:38:37;;;;;;;359.75;258.15;;;;;;;24.84;57.36;99222.06;410124;24;1259;-79
2022/06/06 00:38:48;;;;;;;359.43;260.00;;;;;;;24.85;57.01;99217.53;413678;23;1383;-79
2022/06/06 00:38:58;;;;;;;357.30;259.43;;;;;;;24.84;57.06;99221.22;413876;23;1310;-79
2022/06/06 00:39:10;;;;;;;356.45;259.85;;;;;;;24.84;56.96;99219.38;410220;24;913;-79
2022/06/06 00:39:20;;;;;;;355.17;257.13;;;;;;;24.82;56.95;99213.34;410220;24;956;-79
2022/06/06 00:39:30;;;;;;;355.00;256.60;;;;;;;24.84;57.44;99218.53;414063;23;1402;-79
2022/06/06 00:39:41;;;;;;;354.63;255.87;;;;;;;24.81;57.35;99211.69;411182;24;1164;-79
2022/06/06 00:39:52;;;;;;;353.65;253.95;;;;;;;24.82;57.44;99210.69;413574;23;1255;-79
2022/06/06 00:40:03;;;;;;;355.27;255.85;;;;;;;24.84;57.19;99213.19;413909;23;1913;-79
2022/06/06 00:40:15;;;;;;;358.27;257.20;;;;;;;24.81;57.01;99210.84;412313;24;1250;-79
2022/06/06 00:40:26;;;;;;;358.83;260.00;;;;;;;24.84;56.65;99218.53;410093;24;1275;-79
2022/06/06 00:40:36;;;;;;;355.02;254.70;;;;;;;24.83;56.86;99211.50;410284;24;1296;-79
2022/06/06 00:40:49;;;;;;;354.90;256.17;;;;;;;24.83;56.83;99209.69;410051;24;1276;-79
2022/06/06 00:41:00;;;;;;;354.83;255.15;;;;;;;24.83;57.33;99206.16;411982;24;1380;-79
2022/06/06 00:41:10;;;;;;;354.60;256.90;;;;;;;24.84;57.25;99206.00;411886;24;1206;-79
2022/06/06 00:41:21;;;;;;;355.07;259.03;;;;;;;24.83;57.14;99220.38;410025;24;1220;-80
2022/06/06 00:41:31;;;;;;;353.83;257.98;;;;;;;24.84;57.08;99210.50;413940;23;1260;-80
2022/06/06 00:41:46;;;;;;;354.90;259.47;;;;;;;24.84;56.79;99211.34;414064;23;1205;-80
2022/06/06 00:41:57;;;;;;;354.65;257.98;;;;;;;24.83;56.60;99208.84;412000;24;1371;-80
2022/06/06 00:42:19;;;;;;;352.65;256.98;;;;;;;24.81;56.88;99209.00;417910;23;1202;-80
2022/06/06 00:42:31;;;;;;;348.77;254.15;;;;;;;24.81;56.73;99209.00;416169;23;904;-79
2022/06/06 00:42:42;;;;;;;350.90;251.25;;;;;;;24.81;57.13;99210.84;413999;23;1446;-79
2022/06/06 00:42:53;;;;;;;354.67;252.98;;;;;;;24.80;56.95;99204.66;410100;24;1262;-79
2022/06/06 00:43:03;;;;;;;358.10;255.48;;;;;;;24.79;57.02;99202.97;410159;24;926;-79
2022/06/06 00:43:13;;;;;;;360.40;256.37;;;;;;;24.82;57.02;99205.31;411909;24;1383;-79
2022/06/06 00:43:24;;;;;;;360.33;256.33;;;;;;;24.82;57.00;99205.31;410309;24;1226;-79
2022/06/06 00:43:34;;;;;;;358.87;256.70;;;;;;;24.81;56.86;99205.47;411767;24;928;-79
2022/06/06 00:44:00;;;;;;;355.07;257.37;;;;;;;24.80;56.95;99201.13;413554;23;1376;-79
2022/06/06 00:44:35;;;;;;;350.33;249.48;;;;;;;24.77;57.16;99204.97;409966;24;1256;-79
2022/06/06 00:44:45;;;;;;;350.67;248.75;;;;;;;24.74;56.69;99207.13;411393;24;1094;-79
2022/06/06 00:45:18;;;;;;;349.03;249.93;;;;;;;24.72;56.77;99204.63;413950;23;1206;-79
2022/06/06 00:45:36;;;;;;;346.10;248.63;;;;;;;24.67;56.91;99198.94;413844;23;1262;-78
2022/06/06 00:45:49;;;;;;;347.85;251.60;;;;;;;24.68;57.03;99205.13;414001;23;849;-79
2022/06/06 00:45:59;;;;;;;351.58;254.98;;;;;;;24.67;56.96;99195.44;413743;23;1344;-79
2022/06/06 00:46:11;;;;;;;355.03;255.80;;;;;;;24.66;57.17;99202.63;410343;24;1452;-79
2022/06/06 00:46:26;;;;;;;353.80;255.07;;;;;;;24.70;57.68;99201.25;413774;23;1336;-79
2022/06/06 00:47:17;;;;;;;351.55;254.15;;;;;;;24.72;57.48;99204.63;415871;23;853;-79
2022/06/06 00:47:28;;;;;;;347.65;249.07;;;;;;;24.66;57.23;99196.44;411236;24;1174;-79
2022/06/06 00:47:38;;;;;;;347.73;246.47;;;;;;;24.68;57.31;99207.81;411959;24;1268;-79
2022/06/06 00:48:10;;;;;;;345.85;241.88;;;;;;;24.68;57.37;99200.63;413967;23;851;-79
2022/06/06 00:48:33;;;;;;;348.63;247.70;;;;;;;24.68;57.04;99200.63;410154;24;934;-79
2022/06/06 00:48:43;;;;;;;349.00;247.15;;;;;;;24.69;57.22;99207.66;410334;24;1004;-79
2022/06/06 00:48:54;;;;;;;348.83;246.73;;;;;;;24.70;57.21;99198.59;411497;24;795;-79
2022/06/06 00:49:04;;;;;;;352.55;249.93;;;;;;;24.71;57.20;99205.63;413532;23;1226;-78
2022/06/06 00:49:28;;;;;;;357.97;252.50;;;;;;;24.72;57.22;99201.94;411801;23;1304;-78
2022/06/06 00:49:42;;;;;;;354.48;250.18;;;;;;;24.70;57.13;99187.88;411929;24;886;-78
2022/06/06 00:49:55;;;;;;;350.25;243.75;;;;;;;24.72;57.11;99196.59;413836;23;809;-79
2022/06/06 00:50:12;;;;;;;353.33;247.20;;;;;;;24.74;56.92;99204.47;409927;24;1356;-79
2022/06/06 00:50:45;;;;;;;351.73;249.30;;;;;;;24.71;57.05;99202.94;411896;24;1309;-79
2022/06/06 00:51:12;;;;;;;348.45;247.68;;;;;;;24.72;57.40;99196.59;410134;24;1035;-79
2022/06/06 00:51:22;;;;;;;346.30;247.82;;;;;;;24.71;57.67;99202.94;408003;24;1344;-79
2022/06/06 00:51:33;;;;;;;350.50;252.27;;;;;;;24.71;57.31;99200.25;412059;24;1253;-79
2022/06/06 00:51:43;;;;;;;355.58;256.15;;;;;;;24.72;57.48;99199.25;409913;24;1250;-79
2022/06/06 00:51:54;;;;;;;356.37;257.17;;;;;;;24.73;57.22;99203.63;415808;23;1335;-79
2022/06/06 00:52:10;;;;;;;356.67;255.95;;;;;;;24.73;57.82;99192.91;413904;23;1328;-79
2022/06/06 00:52:30;;;;;;;355.80;248.73;;;;;;;24.75;57.40;99196.25;411801;24;1205;-79
2022/06/06 00:52:42;;;;;;;354.20;251.30;;;;;;;24.75;57.71;99196.25;413810;23;1330;-79
2022/06/06 00:52:52;;;;;;;353.02;251.20;;;;;;;24.74;57.71;99194.59;412104;24;977;-79
2022/06/06 00:53:03;;;;;;;355.33;251.60;;;;;;;24.76;56.73;99197.94;413943;23;1295;-79
2022/06/06 00:53:16;;;;;;;355.35;252.27;;;;;;;24.76;57.30;99202.44;411773;24;1317;-79
2022/06/06 00:53:38;;;;;;;355.52;253.95;;;;;;;24.76;57.57;99197.09;411648;24;1246;-79
2022/06/06 00:53:51;;;;;;;349.23;250.80;;;;;;;24.74;57.61;99199.94;415882;23;1383;-79
2022/06/06 00:54:02;;;;;;;352.02;253.00;;;;;;;24.75;57.36;99196.25;412036;24;888;-79
2022/06/06 00:54:12;;;;;;;352.70;251.17;;;;;;;24.74;57.28;99194.59;412328;24;785;-79
2022/06/06 00:54:23;;;;;;;356.73;254.23;;;;;;;24.73;57.35;99190.22;414021;23;1312;-79
2022/06/06 00:54:33;;;;;;;356.23;253.93;;;;;;;24.73;57.90;99192.91;417844;23;1340;-79
2022/06/06 00:54:43;;;;;;;357.47;257.07;;;;;;;24.73;58.34;99192.91;414003;23;707;-79
2022/06/06 00:54:56;;;;;;;355.95;256.98;;;;;;;24.75;58.36;99190.06;413840;23;1199;-78
2022/06/06 00:55:21;;;;;;;354.65;253.77;;;;;;;24.77;58.22;99199.63;411890;24;1251;-79
2022/06/06 00:55:32;;;;;;;350.80;248.95;;;;;;;24.76;58.38;99197.09;408003;24;1340;-79
2022/06/06 00:55:45;;;;;;;353.58;252.40;;;;;;;24.77;57.99;99194.25;410017;24;1422;-79
2022/06/06 00:56:06;;;;;;;353.88;252.45;;;;;;;24.79;57.99;99194.94;410089;24;917;-79
2022/06/06 00:56:25;;;;;;;350.90;250.27;;;;;;;24.81;57.74;99192.94;413940;23;901;-79
2022/06/06 00:56:39;;;;;;;348.70;251.38;;;;;;;24.81;57.80;99198.28;413780;23;1541;-79
2022/06/06 00:56:52;;;;;;;352.77;253.05;;;;;;;24.77;58.25;99188.91;409931;24;1365;-79
2022/06/06 00:57:06;;;;;;;355.83;252.75;;;;;;;24.80;57.65;99199.28;413821;23;1313;-79
2022/06/06 00:57:19;;;;;;;355.38;252.95;;;;;;;24.79;57.84;99196.78;411932;24;1246;-78
2022/06/06 00:57:31;;;;;;;355.60;255.65;;;;;;;24.78;57.61;99195.94;408030;24;1353;-79
2022/06/06 00:57:48;;;;;;;357.73;258.48;;;;;;;24.79;57.63;99199.47;411875;24;1482;-79
2022/06/06 00:58:00;;;;;;;357.45;256.83;;;;;;;24.79;57.49;99197.63;413644;23;1287;-79
2022/06/06 00:58:13;;;;;;;353.00;254.25;;;;;;;24.78;57.60;99203.13;411150;24;1353;-80
2022/06/06 00:58:24;;;;;;;350.52;255.63;;;;;;;24.74;57.53;99199.94;410142;24;909;-80
2022/06/06 00:58:35;;;;;;;352.98;257.20;;;;;;;24.75;57.52;99201.63;409885;24;1265;-80
2022/06/06 00:58:49;;;;;;;350.50;253.20;;;;;;;24.74;57.13;99199.09;409961;24;1208;-79
2022/06/06 00:59:03;;;;;;;350.23;251.15;;;;;;;24.73;57.52;99203.63;409939;24;827;-79
2022/06/06 00:59:22;;;;;;;353.05;253.43;;;;;;;24.72;57.52;99204.63;410145;24;1449;-79
2022/06/06 00:59:34;;;;;;;353.27;256.02;;;;;;;24.68;57.48;99197.09;411818;24;1260;-79